Time;durP1;ratioP1;P1;durP2;ratioP2;P2;SDS_P1;SDS_P2;PMS_P1;PMS_P2;Temp;Humidity;BMP_temperature;BMP_pressure;BME280_temperature;BME280_humidity;BME280_pressure;Samples;Min_cycle;Max_cycle;Signal;HPM_P1;HPM_P2
2024/02/05 00:01:06;;;;;;;18.95;4.60;;;10.80;99.90;;;;;;7378386;19;20049;-66
2024/02/05 00:03:33;;;;;;;16.77;5.05;;;10.80;99.90;;;;;;7376919;19;20622;-64
2024/02/05 00:06:00;;;;;;;17.65;3.78;;;10.80;99.90;;;;;;7376042;19;20037;-64
2024/02/05 00:08:27;;;;;;;15.70;4.05;;;10.80;99.90;;;;;;7371354;19;20029;-66
2024/02/05 00:10:53;;;;;;;21.15;4.20;;;10.80;99.90;;;;;;7379268;19;20018;-64
2024/02/05 00:13:21;;;;;;;16.10;4.55;;;10.80;99.90;;;;;;7379396;19;20055;-64
2024/02/05 00:15:48;;;;;;;18.35;4.47;;;10.80;99.90;;;;;;7375273;19;21129;-64
2024/02/05 00:18:14;;;;;;;15.98;4.32;;;10.80;99.90;;;;;;7375626;19;20050;-64
2024/02/05 00:20:40;;;;;;;14.98;3.90;;;10.80;99.90;;;;;;7373806;19;20014;-63
2024/02/05 00:23:07;;;;;;;15.57;4.43;;;10.80;99.90;;;;;;7375483;19;20026;-64
2024/02/05 00:25:33;;;;;;;17.13;3.97;;;10.80;99.90;;;;;;7375550;19;20014;-64
2024/02/05 00:27:59;;;;;;;19.30;5.22;;;10.80;99.90;;;;;;7374360;19;20717;-64
2024/02/05 00:30:26;;;;;;;20.73;4.47;;;10.80;99.90;;;;;;7374967;19;20043;-66
2024/02/05 00:32:52;;;;;;;19.42;4.75;;;10.70;99.90;;;;;;7374153;19;20876;-67
2024/02/05 00:35:18;;;;;;;15.63;5.10;;;10.70;99.90;;;;;;7376501;19;20018;-66
2024/02/05 00:37:44;;;;;;;13.88;3.92;;;10.70;99.90;;;;;;7374180;19;20018;-64
2024/02/05 00:40:12;;;;;;;15.07;4.95;;;10.70;99.90;;;;;;7376789;19;20054;-64
2024/02/05 00:42:39;;;;;;;15.75;4.57;;;10.80;99.90;;;;;;7373721;19;20010;-66
2024/02/05 00:45:07;;;;;;;21.48;4.85;;;10.80;99.90;;;;;;7375927;19;20014;-64
2024/02/05 00:47:33;;;;;;;17.67;4.63;;;10.80;99.90;;;;;;7368923;19;20037;-65
2024/02/05 00:49:59;;;;;;;19.15;4.70;;;10.80;99.90;;;;;;7373334;19;20479;-65
2024/02/05 00:52:27;;;;;;;22.60;4.93;;;10.80;99.90;;;;;;7375624;19;20067;-67
2024/02/05 00:54:53;;;;;;;20.27;4.55;;;10.80;99.90;;;;;;7373801;19;20014;-66
2024/02/05 00:57:21;;;;;;;16.83;5.07;;;10.80;99.90;;;;;;7373452;19;20540;-66
2024/02/05 00:59:48;;;;;;;19.35;4.95;;;10.80;99.90;;;;;;7373280;19;20600;-66
2024/02/05 01:02:15;;;;;;;19.67;5.38;;;10.90;99.90;;;;;;7376356;19;20104;-66
2024/02/05 01:04:42;;;;;;;22.83;6.57;;;10.90;99.90;;;;;;7376698;19;20067;-66
2024/02/05 01:07:09;;;;;;;24.48;5.30;;;11.00;99.90;;;;;;7371793;19;20025;-66
2024/02/05 01:09:36;;;;;;;19.60;5.15;;;10.90;99.90;;;;;;7371857;19;20082;-66
2024/02/05 01:12:03;;;;;;;21.45;5.45;;;10.90;99.90;;;;;;7373107;19;20053;-66
2024/02/05 01:14:32;;;;;;;18.13;4.78;;;10.90;99.90;;;;;;7374108;19;20052;-66
2024/02/05 01:17:00;;;;;;;22.63;4.97;;;10.90;99.90;;;;;;7373386;19;20743;-65
2024/02/05 01:19:27;;;;;;;26.67;4.82;;;10.90;99.90;;;;;;7374160;19;20023;-66
2024/02/05 01:21:54;;;;;;;21.42;6.03;;;11.00;99.90;;;;;;7376902;19;20022;-66
2024/02/05 01:24:21;;;;;;;22.90;5.53;;;11.00;99.90;;;;;;7377947;19;20043;-66
2024/02/05 01:26:48;;;;;;;17.92;4.72;;;11.00;99.90;;;;;;7373732;19;20023;-66
2024/02/05 01:29:15;;;;;;;18.40;4.88;;;10.90;99.90;;;;;;7375452;19;20105;-64
2024/02/05 01:31:45;;;;;;;21.27;4.97;;;10.90;99.90;;;;;;7370750;19;20028;-66
2024/02/05 01:34:12;;;;;;;21.17;5.63;;;11.00;99.90;;;;;;7375298;19;20089;-66
2024/02/05 01:36:39;;;;;;;16.20;4.88;;;10.90;99.90;;;;;;7374317;19;20024;-66
2024/02/05 01:39:07;;;;;;;21.15;5.85;;;10.90;99.90;;;;;;7372505;19;20028;-65
2024/02/05 01:41:34;;;;;;;24.08;5.30;;;10.90;99.90;;;;;;7371170;19;21167;-66
2024/02/05 01:44:01;;;;;;;31.67;6.75;;;10.90;99.90;;;;;;7364605;19;20563;-66
2024/02/05 01:46:31;;;;;;;20.65;5.05;;;10.90;99.90;;;;;;7371401;19;20325;-66
2024/02/05 01:49:02;;;;;;;23.83;5.45;;;10.90;99.90;;;;;;7373378;19;20052;-64
2024/02/05 01:51:35;;;;;;;23.50;5.97;;;10.80;99.90;;;;;;7371144;19;20819;-64
2024/02/05 01:54:02;;;;;;;23.10;5.88;;;10.80;99.90;;;;;;7372774;19;20771;-64
2024/02/05 01:56:32;;;;;;;19.92;5.82;;;10.90;99.90;;;;;;7364681;19;20025;-64
2024/02/05 01:59:03;;;;;;;19.10;5.07;;;10.90;99.90;;;;;;7375049;19;20531;-64
2024/02/05 02:01:34;;;;;;;28.05;5.43;;;10.80;99.90;;;;;;7371047;19;20093;-64
2024/02/05 02:04:02;;;;;;;;;;;10.80;99.90;;;;;;7371945;19;20120;-64
2024/02/05 02:06:30;;;;;;;27.05;6.70;;;10.80;99.90;;;;;;7367814;19;19929;-64
2024/02/05 02:08:57;;;;;;;25.00;5.20;;;10.80;99.90;;;;;;7374746;19;20018;-66
2024/02/05 02:11:25;;;;;;;20.00;6.05;;;10.80;99.90;;;;;;7374383;19;20791;-66
2024/02/05 02:13:52;;;;;;;22.48;5.47;;;10.80;99.90;;;;;;7369612;19;20019;-64
2024/02/05 02:16:27;;;;;;;21.60;7.40;;;10.80;99.90;;;;;;7372680;19;20018;-64
2024/02/05 02:18:56;;;;;;;23.13;5.05;;;10.80;99.90;;;;;;7370698;19;20082;-63
2024/02/05 02:21:26;;;;;;;22.88;5.80;;;10.80;99.90;;;;;;7373423;19;20027;-64
2024/02/05 02:23:54;;;;;;;26.15;6.40;;;10.80;99.90;;;;;;7371363;19;20416;-66
2024/02/05 02:26:21;;;;;;;22.13;5.57;;;10.70;99.90;;;;;;7369745;19;20094;-64
2024/02/05 02:28:48;;;;;;;22.75;6.45;;;10.80;99.90;;;;;;7371030;19;20031;-64
2024/02/05 02:31:20;;;;;;;22.33;5.72;;;10.70;99.90;;;;;;7371756;19;20018;-65
2024/02/05 02:33:58;;;;;;;24.30;5.97;;;10.70;99.90;;;;;;7369959;19;20029;-64
2024/02/05 02:36:35;;;;;;;26.73;5.55;;;10.80;99.90;;;;;;7368927;19;20022;-65
2024/02/05 02:39:11;;;;;;;25.10;5.95;;;10.70;99.90;;;;;;7372624;19;20813;-64
2024/02/05 02:41:42;;;;;;;27.23;6.88;;;10.70;99.90;;;;;;7364763;19;20028;-64
2024/02/05 02:44:10;;;;;;;27.73;5.85;;;10.70;99.90;;;;;;7364592;19;20018;-64
2024/02/05 02:46:39;;;;;;;25.05;6.32;;;10.70;99.90;;;;;;7370465;19;20019;-64
2024/02/05 02:49:05;;;;;;;27.20;7.32;;;10.60;99.90;;;;;;7365685;19;20018;-64
2024/02/05 02:51:31;;;;;;;23.23;6.13;;;10.70;99.90;;;;;;7370325;19;20018;-64
2024/02/05 02:53:59;;;;;;;34.38;7.00;;;10.60;99.90;;;;;;7370209;19;20022;-65
2024/02/05 02:56:25;;;;;;;26.63;6.75;;;10.60;99.90;;;;;;7368695;19;20026;-64
2024/02/05 02:58:52;;;;;;;28.83;7.25;;;10.60;99.90;;;;;;7370417;19;20114;-64
2024/02/05 03:01:18;;;;;;;23.92;5.75;;;10.50;99.90;;;;;;7369448;19;20022;-64
2024/02/05 03:03:44;;;;;;;21.38;6.45;;;10.60;99.90;;;;;;7369068;19;20327;-64
2024/02/05 03:06:11;;;;;;;31.88;6.47;;;10.60;99.90;;;;;;7371387;19;20086;-64
2024/02/05 03:08:37;;;;;;;28.73;7.60;;;10.50;99.90;;;;;;7366305;19;20011;-63
2024/02/05 03:11:04;;;;;;;31.45;6.85;;;10.50;99.90;;;;;;7369707;19;20026;-64
2024/02/05 03:13:32;;;;;;;26.35;6.30;;;10.40;99.90;;;;;;7368432;19;20015;-64
2024/02/05 03:15:58;;;;;;;28.92;6.82;;;10.40;99.90;;;;;;7370373;19;20026;-66
2024/02/05 03:18:25;;;;;;;30.48;6.93;;;10.30;99.90;;;;;;7372101;19;20018;-65
2024/02/05 03:20:51;;;;;;;28.23;6.45;;;10.30;99.90;;;;;;7371954;19;20062;-66
2024/02/05 03:23:18;;;;;;;37.75;8.50;;;10.30;99.90;;;;;;7372675;19;20074;-66
2024/02/05 03:25:44;;;;;;;33.25;7.50;;;10.30;99.90;;;;;;7372259;19;20129;-66
2024/02/05 03:28:10;;;;;;;27.17;7.38;;;10.20;99.90;;;;;;7369800;19;20019;-64
2024/02/05 03:30:36;;;;;;;31.20;7.65;;;10.20;99.90;;;;;;7375973;19;20104;-64
2024/02/05 03:33:04;;;;;;;27.38;6.47;;;10.20;99.90;;;;;;7375120;19;20042;-66
2024/02/05 03:35:31;;;;;;;31.10;7.82;;;10.20;99.90;;;;;;7374455;19;20723;-66
2024/02/05 03:37:57;;;;;;;29.15;7.47;;;10.20;99.90;;;;;;7372916;19;20490;-66
2024/02/05 03:40:24;;;;;;;27.65;7.07;;;10.10;99.90;;;;;;7377353;19;20026;-66
2024/02/05 03:42:54;;;;;;;31.15;7.38;;;10.10;99.90;;;;;;7374296;19;20019;-64
2024/02/05 03:45:22;;;;;;;37.47;9.23;;;10.10;99.90;;;;;;7376260;19;20022;-65
2024/02/05 03:47:49;;;;;;;26.70;7.50;;;10.00;99.90;;;;;;7372859;19;20023;-65
2024/02/05 03:50:17;;;;;;;29.75;6.80;;;10.10;99.90;;;;;;7375481;19;20022;-66
2024/02/05 03:52:45;;;;;;;33.75;7.57;;;10.10;99.90;;;;;;7376536;19;20032;-64
2024/02/05 03:55:13;;;;;;;29.42;8.55;;;10.00;99.90;;;;;;7375697;19;20535;-64
2024/02/05 03:57:42;;;;;;;27.92;7.20;;;10.00;99.90;;;;;;7375584;19;20043;-64
2024/02/05 04:00:09;;;;;;;26.23;6.60;;;10.00;99.90;;;;;;7374912;19;20018;-64
2024/02/05 04:02:41;;;;;;;28.33;8.13;;;10.00;99.90;;;;;;7374662;19;20018;-64
2024/02/05 04:05:08;;;;;;;27.83;7.93;;;9.90;99.90;;;;;;7378736;19;20022;-64
2024/02/05 04:07:36;;;;;;;40.42;9.85;;;9.90;99.90;;;;;;7371802;19;20029;-64
2024/02/05 04:10:03;;;;;;;28.95;7.00;;;9.90;99.90;;;;;;7375903;19;20090;-66
2024/02/05 04:12:30;;;;;;;32.22;7.50;;;9.90;99.90;;;;;;7374117;19;20070;-66
2024/02/05 04:14:57;;;;;;;36.05;9.00;;;9.90;99.90;;;;;;7377449;19;20052;-64
2024/02/05 04:17:24;;;;;;;35.63;8.13;;;9.90;99.90;;;;;;7366479;19;20029;-64
2024/02/05 04:19:51;;;;;;;31.05;8.77;;;9.90;99.90;;;;;;7372934;19;20019;-64
2024/02/05 04:22:19;;;;;;;34.42;8.60;;;9.90;99.90;;;;;;7368178;19;20014;-64
2024/02/05 04:24:46;;;;;;;30.30;7.55;;;9.90;99.90;;;;;;7370211;19;20018;-64
2024/02/05 04:27:14;;;;;;;31.45;8.25;;;9.90;99.90;;;;;;7369177;19;20035;-64
2024/02/05 04:29:42;;;;;;;28.38;7.20;;;9.90;99.90;;;;;;7372631;19;20043;-64
2024/02/05 04:32:10;;;;;;;33.47;7.93;;;9.90;99.90;;;;;;7373926;19;20479;-66
2024/02/05 04:34:37;;;;;;;31.65;9.45;;;9.90;99.90;;;;;;7375179;19;20027;-66
2024/02/05 04:37:04;;;;;;;32.95;8.32;;;9.90;99.90;;;;;;7372881;19;21143;-66
2024/02/05 04:39:31;;;;;;;26.08;7.25;;;9.90;99.90;;;;;;7368626;19;20364;-65
2024/02/05 04:41:58;;;;;;;33.28;7.88;;;9.90;99.90;;;;;;7369687;19;20011;-65
2024/02/05 04:44:25;;;;;;;32.35;7.40;;;9.90;99.90;;;;;;7372372;19;20082;-65
2024/02/05 04:46:55;;;;;;;37.33;7.55;;;9.90;99.90;;;;;;7373518;19;20479;-64
2024/02/05 04:49:22;;;;;;;30.63;8.75;;;9.90;99.90;;;;;;7369800;19;20077;-64
2024/02/05 04:51:49;;;;;;;24.85;6.47;;;9.90;99.90;;;;;;7369566;19;21017;-64
2024/02/05 04:54:17;;;;;;;34.42;8.50;;;9.90;99.90;;;;;;7373035;19;20022;-64
2024/02/05 04:56:44;;;;;;;34.50;7.57;;;9.90;99.90;;;;;;7364116;19;20574;-64
2024/02/05 04:59:11;;;;;;;34.50;8.38;;;9.90;99.90;;;;;;7371974;19;20015;-64
2024/02/05 05:01:38;;;;;;;31.10;8.02;;;9.90;99.90;;;;;;7368483;19;20019;-64
2024/02/05 05:04:05;;;;;;;29.90;7.20;;;9.90;99.90;;;;;;7370855;19;20018;-64
2024/02/05 05:06:35;;;;;;;29.95;8.52;;;9.90;99.90;;;;;;7369420;19;20038;-66
2024/02/05 05:09:02;;;;;;;28.48;7.70;;;9.80;99.90;;;;;;7367517;19;20052;-66
2024/02/05 05:11:29;;;;;;;35.92;9.23;;;9.80;99.90;;;;;;7371623;19;20841;-64
2024/02/05 05:13:56;;;;;;;35.33;8.60;;;9.80;99.90;;;;;;7368279;19;20594;-64
2024/02/05 05:16:23;;;;;;;28.90;8.23;;;9.90;99.90;;;;;;7368869;19;20050;-64
2024/02/05 05:18:50;;;;;;;35.08;8.27;;;9.80;99.90;;;;;;7368187;19;20752;-64
2024/02/05 05:21:17;;;;;;;22.30;7.40;;;9.80;99.90;;;;;;7366381;19;20014;-64
2024/02/05 05:23:44;;;;;;;22.90;7.47;;;9.80;99.90;;;;;;7370175;19;20018;-66
2024/02/05 05:26:11;;;;;;;34.35;7.78;;;9.80;99.90;;;;;;7369235;19;20070;-66
2024/02/05 05:28:40;;;;;;;33.80;8.25;;;9.80;99.90;;;;;;7368114;19;20172;-64
2024/02/05 05:31:07;;;;;;;33.35;7.72;;;9.80;99.90;;;;;;7366786;19;20120;-64
2024/02/05 05:33:36;;;;;;;31.10;8.15;;;9.80;99.90;;;;;;7367691;19;20025;-64
2024/02/05 05:36:03;;;;;;;25.13;7.38;;;9.80;99.90;;;;;;7369358;19;20014;-63
2024/02/05 05:38:30;;;;;;;26.35;8.52;;;9.80;99.90;;;;;;7366642;19;20048;-64
2024/02/05 05:40:57;;;;;;;29.30;8.02;;;9.80;99.90;;;;;;7366825;19;20094;-64
2024/02/05 05:43:24;;;;;;;30.60;7.70;;;9.80;99.90;;;;;;7371007;19;20018;-64
2024/02/05 05:45:51;;;;;;;29.45;7.57;;;9.80;99.90;;;;;;7373528;19;20022;-65
2024/02/05 05:48:19;;;;;;;30.55;7.57;;;9.80;99.90;;;;;;7370634;19;20085;-64
2024/02/05 05:50:47;;;;;;;31.27;8.25;;;9.80;99.90;;;;;;7373640;19;20016;-65
2024/02/05 05:53:14;;;;;;;31.40;7.93;;;9.80;99.90;;;;;;7366751;19;20027;-65
2024/02/05 05:55:42;;;;;;;32.38;7.72;;;9.80;99.90;;;;;;7369905;19;20026;-64
2024/02/05 05:58:09;;;;;;;30.58;7.55;;;9.80;99.90;;;;;;7367274;19;20159;-64
2024/02/05 06:00:36;;;;;;;33.25;8.38;;;9.80;99.90;;;;;;7367149;19;20022;-65
2024/02/05 06:03:06;;;;;;;34.38;8.10;;;9.80;99.90;;;;;;7370791;19;20078;-64
2024/02/05 06:05:33;;;;;;;29.38;8.05;;;9.80;99.90;;;;;;7366360;19;21079;-63
2024/02/05 06:08:03;;;;;;;34.22;8.02;;;9.80;99.90;;;;;;7365315;19;20064;-64
2024/02/05 06:10:30;;;;;;;35.75;9.93;;;9.80;99.90;;;;;;7369761;19;20018;-64
2024/02/05 06:12:58;;;;;;;24.88;7.35;;;9.80;99.90;;;;;;7367062;19;20019;-64
2024/02/05 06:15:25;;;;;;;31.83;8.00;;;9.80;99.90;;;;;;7370337;19;20559;-63
2024/02/05 06:17:55;;;;;;;30.30;8.35;;;9.80;99.90;;;;;;7367793;19;20670;-63
2024/02/05 06:20:22;;;;;;;34.28;8.18;;;9.80;99.90;;;;;;7367975;19;20090;-65
2024/02/05 06:22:49;;;;;;;22.38;7.28;;;9.80;99.90;;;;;;7369968;19;20018;-65
2024/02/05 06:25:17;;;;;;;27.30;8.82;;;9.80;99.90;;;;;;7367235;19;20014;-65
2024/02/05 06:27:46;;;;;;;32.85;8.38;;;9.80;99.90;;;;;;7364531;19;20015;-64
2024/02/05 06:30:13;;;;;;;29.58;8.00;;;9.80;99.90;;;;;;7361520;19;20019;-62
2024/02/05 06:32:39;;;;;;;29.10;9.10;;;9.80;99.90;;;;;;7364636;19;20026;-64
2024/02/05 06:35:05;;;;;;;31.30;7.18;;;9.80;99.90;;;;;;7364203;19;20401;-64
2024/02/05 06:37:34;;;;;;;31.60;8.00;;;9.70;99.90;;;;;;7368991;19;20046;-63
2024/02/05 06:40:01;;;;;;;28.70;7.90;;;9.70;99.90;;;;;;7370299;19;20023;-65
2024/02/05 06:42:27;;;;;;;35.25;8.18;;;9.70;99.90;;;;;;7371838;19;20022;-64
2024/02/05 06:44:53;;;;;;;33.28;8.38;;;9.70;99.90;;;;;;7365157;19;20010;-64
2024/02/05 06:47:19;;;;;;;24.95;8.00;;;9.70;99.90;;;;;;7368810;19;20015;-64
2024/02/05 06:49:46;;;;;;;43.10;8.50;;;9.60;99.90;;;;;;7362775;19;20500;-66
2024/02/05 06:52:12;;;;;;;33.28;8.60;;;9.60;99.90;;;;;;7372580;19;20361;-66
2024/02/05 06:54:38;;;;;;;40.45;8.07;;;9.60;99.90;;;;;;7365233;19;20498;-65
2024/02/05 06:57:04;;;;;;;34.67;8.75;;;9.60;99.90;;;;;;7369562;19;20889;-65
2024/02/05 06:59:31;;;;;;;30.60;7.80;;;9.60;99.90;;;;;;7364202;19;20058;-65
2024/02/05 07:01:57;;;;;;;31.02;7.75;;;9.70;99.90;;;;;;7366399;19;20608;-65
2024/02/05 07:04:23;;;;;;;32.15;8.00;;;9.70;99.90;;;;;;7372815;19;20010;-66
2024/02/05 07:06:49;;;;;;;29.80;8.02;;;9.60;99.90;;;;;;7381914;19;20011;-66
2024/02/05 07:09:15;;;;;;;31.85;8.32;;;9.60;99.90;;;;;;7382183;19;20014;-66
2024/02/05 07:11:42;;;;;;;31.05;7.47;;;9.60;99.90;;;;;;7382834;19;20018;-66
2024/02/05 07:14:08;;;;;;;36.40;8.48;;;9.60;99.90;;;;;;7379357;19;20078;-64
2024/02/05 07:16:34;;;;;;;22.45;7.85;;;9.60;99.90;;;;;;7382637;19;20032;-64
2024/02/05 07:19:01;;;;;;;26.88;8.07;;;9.60;99.90;;;;;;7379067;19;20011;-66
2024/02/05 07:21:28;;;;;;;29.92;7.97;;;9.50;99.90;;;;;;7382632;19;20026;-66
2024/02/05 07:23:54;;;;;;;36.75;9.35;;;9.50;99.90;;;;;;7380127;19;20014;-64
2024/02/05 07:26:22;;;;;;;27.80;7.47;;;9.50;99.90;;;;;;7379446;19;20092;-65
2024/02/05 07:28:49;;;;;;;37.33;8.30;;;9.50;99.90;;;;;;7381130;19;20082;-66
2024/02/05 07:31:16;;;;;;;21.05;8.27;;;9.50;99.90;;;;;;7381422;19;20101;-66
2024/02/05 07:33:43;;;;;;;33.25;10.73;;;9.50;99.90;;;;;;7381375;19;20073;-63
2024/02/05 07:36:12;;;;;;;32.03;8.30;;;9.50;99.90;;;;;;7384196;19;20026;-63
2024/02/05 07:38:39;;;;;;;30.50;7.93;;;9.40;99.90;;;;;;7381049;19;20503;-67
2024/02/05 07:41:06;;;;;;;30.90;9.13;;;9.40;99.90;;;;;;7380856;19;20078;-66
2024/02/05 07:43:38;;;;;;;40.28;8.63;;;9.40;99.90;;;;;;7385655;19;20057;-67
2024/02/05 07:46:08;;;;;;;25.63;8.63;;;9.40;99.90;;;;;;7384042;19;21046;-66
2024/02/05 07:48:35;;;;;;;25.00;7.22;;;9.40;99.90;;;;;;7379644;19;20048;-70
2024/02/05 07:51:03;;;;;;;30.45;8.63;;;9.40;99.90;;;;;;7381265;19;20006;-66
2024/02/05 07:53:30;;;;;;;31.52;9.07;;;9.40;99.90;;;;;;7382262;19;20074;-64
2024/02/05 10:47:19;;;;;;;36.55;13.35;;;9.80;99.90;;;;;;7174497;19;3124653;-64
2024/02/05 10:49:47;;;;;;;28.75;11.05;;;9.80;99.90;;;;;;7354934;19;20065;-65
2024/02/05 10:52:15;;;;;;;31.75;13.75;;;9.80;99.90;;;;;;7376918;19;20022;-65
2024/02/05 10:54:44;;;;;;;30.02;7.60;;;9.80;99.90;;;;;;7379337;19;20077;-62
2024/02/05 10:57:17;;;;;;;37.22;7.53;;;9.70;99.90;;;;;;7376534;19;20023;-62
2024/02/05 10:59:44;;;;;;;23.52;8.73;;;9.70;99.90;;;;;;7378412;19;20077;-60
2024/02/05 11:02:27;;;;;;;28.67;7.57;;;9.70;99.90;;;;;;7378592;19;20014;-61
2024/02/05 11:04:56;;;;;;;24.27;6.70;;;9.70;99.90;;;;;;7374553;19;20018;-61
2024/02/05 11:07:30;;;;;;;28.35;7.18;;;9.70;99.90;;;;;;7377838;19;20018;-61
2024/02/05 11:10:01;;;;;;;21.65;6.75;;;9.70;99.90;;;;;;7378350;19;20034;-61
2024/02/05 11:12:31;;;;;;;23.90;7.82;;;9.60;99.90;;;;;;7379808;19;20030;-61
2024/02/05 11:15:05;;;;;;;21.73;6.78;;;9.60;99.90;;;;;;7379887;19;20644;-60
2024/02/05 11:17:36;;;;;;;106.40;75.03;;;9.70;99.90;;;;;;7379214;19;20049;-62
2024/02/05 11:20:06;;;;;;;34.45;14.95;;;9.70;99.90;;;;;;7381615;19;20031;-62
2024/02/05 11:22:37;;;;;;;34.35;10.35;;;9.60;99.90;;;;;;7375249;19;20514;-63
2024/02/05 11:25:04;;;;;;;24.75;8.70;;;9.70;99.90;;;;;;7378538;19;20018;-62
2024/02/05 11:27:32;;;;;;;25.20;7.55;;;9.70;99.90;;;;;;7380176;19;20494;-62
2024/02/05 11:30:03;;;;;;;25.05;8.45;;;9.70;99.90;;;;;;7377382;19;20089;-62
2024/02/05 11:34:03;;;;;;;31.00;9.48;;;9.70;99.90;;;;;;7411632;19;20324;-63
2024/02/05 11:36:30;;;;;;;32.25;8.00;;;9.70;99.90;;;;;;7412214;19;20070;-62
2024/02/05 11:39:07;;;;;;;27.27;7.63;;;9.70;99.90;;;;;;7413834;19;20035;-63
2024/02/05 11:41:34;;;;;;;26.77;6.95;;;9.60;99.90;;;;;;7408943;19;20018;-63
2024/02/05 11:44:06;;;;;;;25.02;7.68;;;9.60;99.90;;;;;;7412959;19;20018;-62
2024/02/05 11:46:33;;;;;;;28.50;8.18;;;9.70;99.90;;;;;;7411079;19;20791;-62
2024/02/05 11:49:02;;;;;;;24.45;7.65;;;9.70;99.90;;;;;;7411415;19;20137;-63
2024/02/05 11:51:30;;;;;;;25.70;6.72;;;9.70;99.90;;;;;;7410445;19;20403;-63
2024/02/05 11:53:58;;;;;;;22.08;7.00;;;9.60;99.90;;;;;;7414311;19;20010;-62
2024/02/05 11:56:29;;;;;;;22.63;6.38;;;9.70;99.90;;;;;;7411497;19;20018;-62
2024/02/05 11:58:56;;;;;;;26.45;8.07;;;9.70;99.90;;;;;;7412875;19;20023;-64
2024/02/05 12:01:22;;;;;;;28.35;7.90;;;9.70;99.90;;;;;;7410554;19;20018;-63
2024/02/05 12:03:50;;;;;;;23.55;6.35;;;9.70;99.90;;;;;;7412125;19;20022;-63
2024/02/05 12:06:17;;;;;;;23.98;6.70;;;9.60;99.90;;;;;;7411159;19;20039;-63
2024/02/05 12:08:45;;;;;;;27.55;8.23;;;9.60;99.90;;;;;;7410001;19;20018;-62
2024/02/05 12:11:12;;;;;;;22.52;6.80;;;9.60;99.90;;;;;;7411267;19;20090;-62
2024/02/05 12:13:39;;;;;;;29.45;7.75;;;9.60;99.90;;;;;;7404996;19;20042;-62
2024/02/05 12:16:12;;;;;;;20.10;6.82;;;9.60;99.90;;;;;;7411145;19;20018;-62
2024/02/05 12:18:41;;;;;;;24.45;7.00;;;9.60;99.90;;;;;;7411591;19;20014;-62
2024/02/05 12:21:08;;;;;;;27.88;8.18;;;9.60;99.90;;;;;;7410526;19;20053;-65
2024/02/05 12:23:35;;;;;;;27.85;7.72;;;9.60;99.90;;;;;;7413448;19;20022;-66
2024/02/05 12:26:02;;;;;;;25.83;7.82;;;9.60;99.90;;;;;;7410661;19;20022;-66
2024/02/05 12:28:30;;;;;;;23.70;8.18;;;9.60;99.90;;;;;;7412917;19;20083;-66
2024/02/05 12:30:59;;;;;;;29.00;8.02;;;9.60;99.90;;;;;;7407199;19;20524;-66
2024/02/05 12:33:26;;;;;;;22.23;7.20;;;9.60;99.90;;;;;;7409284;19;20018;-66
2024/02/05 12:36:10;;;;;;;21.25;7.38;;;9.60;99.90;;;;;;7411543;19;20018;-66
2024/02/05 12:38:38;;;;;;;29.17;7.32;;;9.60;99.90;;;;;;7410623;19;20018;-66
2024/02/05 12:41:05;;;;;;;23.75;6.72;;;9.60;99.90;;;;;;7409467;19;20022;-65
2024/02/05 12:43:32;;;;;;;24.25;6.85;;;9.60;99.90;;;;;;7400588;19;20374;-65
2024/02/05 12:45:59;;;;;;;28.20;8.43;;;9.60;99.90;;;;;;7380860;19;20092;-70
2024/02/05 12:48:26;;;;;;;21.85;6.35;;;9.60;99.90;;;;;;7381254;19;20436;-66
2024/02/05 12:50:53;;;;;;;18.02;6.47;;;9.60;99.90;;;;;;7381012;19;20014;-70
2024/02/05 12:53:20;;;;;;;26.42;8.02;;;9.60;99.90;;;;;;7379395;19;20883;-70
2024/02/05 12:55:48;;;;;;;23.23;7.18;;;9.60;99.90;;;;;;7378315;19;20024;-71
2024/02/05 12:58:15;;;;;;;27.83;7.18;;;9.50;99.90;;;;;;7384137;19;20031;-70
2024/02/05 13:00:43;;;;;;;27.00;7.93;;;9.60;99.90;;;;;;7378904;19;20027;-70
2024/02/05 13:03:11;;;;;;;26.90;7.75;;;9.60;99.90;;;;;;7382967;19;20026;-72
2024/02/05 13:05:41;;;;;;;26.80;7.30;;;9.60;99.90;;;;;;7380032;19;20022;-72
2024/02/05 13:08:10;;;;;;;28.52;8.00;;;9.60;99.90;;;;;;7376777;19;20014;-72
2024/02/05 13:10:45;;;;;;;35.08;8.50;;;9.60;99.90;;;;;;7379224;19;20086;-66
2024/02/05 13:13:12;;;;;;;30.40;7.30;;;9.60;99.90;;;;;;7376479;19;20883;-71
2024/02/05 13:15:40;;;;;;;28.05;8.45;;;9.60;99.90;;;;;;7379264;19;20011;-65
2024/02/05 13:18:11;;;;;;;25.85;7.13;;;9.60;99.90;;;;;;7379505;19;20075;-66
2024/02/05 13:20:38;;;;;;;27.90;7.78;;;9.60;99.90;;;;;;7380389;19;20461;-66
2024/02/05 13:23:04;;;;;;;25.85;6.57;;;9.60;99.90;;;;;;7368759;19;20026;-65
2024/02/05 13:25:31;;;;;;;27.08;8.07;;;9.60;99.90;;;;;;7374474;19;20462;-65
2024/02/05 13:27:58;;;;;;;30.73;8.15;;;9.60;99.90;;;;;;7379045;19;20764;-65
2024/02/05 13:30:25;;;;;;;30.80;8.77;;;9.60;99.90;;;;;;7378838;19;20034;-66
2024/02/05 13:32:54;;;;;;;30.55;6.70;;;9.60;99.90;;;;;;7375536;19;20019;-65
2024/02/05 13:35:21;;;;;;;34.13;8.57;;;9.60;99.90;;;;;;7377442;19;20834;-65
2024/02/05 13:37:47;;;;;;;27.58;7.88;;;9.60;99.90;;;;;;7375790;19;20030;-65
2024/02/05 13:40:13;;;;;;;31.52;8.18;;;9.60;99.90;;;;;;7378701;19;20873;-71
2024/02/05 13:42:46;;;;;;;26.83;7.40;;;9.50;99.90;;;;;;7377351;19;20017;-71
2024/02/05 13:45:13;;;;;;;29.10;9.13;;;9.50;99.90;;;;;;7375858;19;20721;-67
2024/02/05 13:47:43;;;;;;;22.45;6.55;;;9.50;99.90;;;;;;7375389;19;20749;-71
2024/02/05 13:50:13;;;;;;;38.50;9.30;;;9.50;99.90;;;;;;7378316;19;20026;-72
2024/02/05 13:52:39;;;;;;;27.15;8.43;;;9.50;99.90;;;;;;7375625;19;20021;-72
2024/02/05 13:55:06;;;;;;;27.60;8.38;;;9.50;99.90;;;;;;7375606;19;20606;-72
2024/02/05 13:57:33;;;;;;;35.80;9.00;;;9.50;99.90;;;;;;7375661;19;20019;-72
2024/02/05 13:59:59;;;;;;;25.92;7.10;;;9.50;99.90;;;;;;7382025;19;20089;-72
2024/02/05 14:02:26;;;;;;;27.65;8.68;;;9.50;99.90;;;;;;7377760;19;20015;-72
2024/02/05 14:04:53;;;;;;;27.60;7.72;;;9.50;99.90;;;;;;7380159;19;20102;-65
2024/02/05 14:07:19;;;;;;;27.77;8.68;;;9.50;99.90;;;;;;7376868;19;20536;-65
2024/02/05 14:09:46;;;;;;;25.58;7.88;;;9.50;99.90;;;;;;7378518;19;20606;-66
2024/02/05 14:12:12;;;;;;;26.27;7.95;;;9.50;99.90;;;;;;7378843;19;20095;-69
2024/02/05 14:14:39;;;;;;;22.10;7.88;;;9.50;99.90;;;;;;7378139;19;20102;-67
2024/02/05 14:17:06;;;;;;;26.50;7.45;;;9.50;99.90;;;;;;7377648;19;20027;-66
2024/02/05 14:19:35;;;;;;;32.00;9.18;;;9.50;99.90;;;;;;7377108;19;20015;-66
2024/02/05 14:22:03;;;;;;;30.83;7.13;;;9.50;99.90;;;;;;7378039;19;20835;-67
2024/02/05 14:24:30;;;;;;;27.58;6.78;;;9.50;99.90;;;;;;7376342;19;20082;-66
2024/02/05 14:27:00;;;;;;;30.33;6.93;;;9.50;99.90;;;;;;7378192;19;20014;-65
2024/02/05 14:29:27;;;;;;;28.85;7.43;;;9.50;99.90;;;;;;7379553;19;20019;-66
2024/02/05 14:31:54;;;;;;;31.05;7.40;;;9.50;99.90;;;;;;7377958;19;20501;-66
2024/02/05 14:34:21;;;;;;;28.38;7.68;;;9.50;99.90;;;;;;7377926;19;20026;-68
2024/02/05 14:36:49;;;;;;;32.03;9.75;;;9.50;99.90;;;;;;7380590;19;20041;-72
2024/02/05 14:39:17;;;;;;;29.35;6.88;;;9.50;99.90;;;;;;7376924;19;20031;-71
2024/02/05 14:41:53;;;;;;;26.70;8.27;;;9.50;99.90;;;;;;7380324;19;20077;-68
2024/02/05 14:44:20;;;;;;;40.88;8.07;;;9.50;99.90;;;;;;7373815;19;20018;-66
2024/02/05 14:46:48;;;;;;;26.50;8.48;;;9.40;99.90;;;;;;7376353;19;20883;-72
2024/02/05 14:49:21;;;;;;;28.98;7.30;;;9.40;99.90;;;;;;7375543;19;20022;-66
2024/02/05 14:51:48;;;;;;;29.60;7.40;;;9.50;99.90;;;;;;7377151;19;20025;-72
2024/02/05 14:54:15;;;;;;;33.28;7.90;;;9.50;99.90;;;;;;7376016;19;20026;-72
2024/02/05 14:56:42;;;;;;;32.53;7.93;;;9.50;99.90;;;;;;7373292;19;20018;-68
2024/02/05 14:59:09;;;;;;;29.50;7.70;;;9.50;99.90;;;;;;7378333;19;20023;-73
2024/02/05 15:01:36;;;;;;;26.02;6.80;;;9.50;99.90;;;;;;7376952;19;20022;-65
2024/02/05 15:04:04;;;;;;;24.17;6.25;;;9.50;99.90;;;;;;7376310;19;20584;-71
2024/02/05 15:06:31;;;;;;;23.13;6.88;;;9.50;99.90;;;;;;7375752;19;20776;-64
2024/02/05 15:08:58;;;;;;;27.45;6.82;;;9.50;99.90;;;;;;7377409;19;20800;-66
2024/02/05 15:11:26;;;;;;;28.33;6.97;;;9.50;99.90;;;;;;7377654;19;20029;-68
2024/02/05 15:13:55;;;;;;;21.75;5.75;;;9.50;99.90;;;;;;7376532;19;20090;-69
2024/02/05 15:16:23;;;;;;;21.42;7.70;;;9.50;99.90;;;;;;7376104;19;20384;-68
2024/02/05 15:18:50;;;;;;;22.50;5.25;;;9.50;99.90;;;;;;7381202;19;20074;-71
2024/02/05 15:21:18;;;;;;;20.52;5.50;;;9.50;99.90;;;;;;7376166;19;20018;-68
2024/02/05 15:23:45;;;;;;;19.13;6.85;;;9.50;99.90;;;;;;7376615;19;20018;-65
2024/02/05 15:26:12;;;;;;;19.08;6.38;;;9.50;99.90;;;;;;7361966;19;20018;-67
2024/02/05 15:28:39;;;;;;;18.88;5.20;;;9.50;99.90;;;;;;7372803;19;20059;-67
2024/02/05 15:31:07;;;;;;;23.52;5.38;;;9.50;99.90;;;;;;7366213;19;20026;-67
2024/02/05 15:33:34;;;;;;;21.13;5.80;;;9.50;99.90;;;;;;7369305;19;20021;-67
2024/02/05 15:36:00;;;;;;;22.35;5.78;;;9.50;99.90;;;;;;7367205;19;20036;-66
2024/02/05 15:38:27;;;;;;;20.48;5.53;;;9.50;99.90;;;;;;7369439;19;20086;-66